Time;durP1;ratioP1;P1;durP2;ratioP2;P2;SDS_P1;SDS_P2;PMS_P1;PMS_P2;Temp;Humidity;BMP_temperature;BMP_pressure;BME280_temperature;BME280_humidity;BME280_pressure;Samples;Min_cycle;Max_cycle;Signal;HPM_P1;HPM_P2
2023/08/29 00:00:26;;;;;;;;;;;;;;;;;;2068228;28;19921;-78
2023/08/29 00:01:47;;;;;;;;;;;;;;;;;;2069708;28;19922;-77
2023/08/29 00:03:08;;;;;;;;;;;;;;;;;;2068372;28;20000;-79
2023/08/29 00:04:29;;;;;;;;;;;;;;;;;;2072624;28;19913;-78
2023/08/29 00:05:50;;;;;;;;;;;;;;;;;;2069912;28;19914;-78
2023/08/29 00:07:10;;;;;;;;;;;;;;;;;;2071607;28;19917;-78
2023/08/29 00:08:33;;;;;;;;;;;;;;;;;;2071440;28;19913;-78
2023/08/29 00:09:53;;;;;;;;;;;;;;;;;;2071003;28;19964;-78
2023/08/29 00:11:14;;;;;;;;;;;;;;;;;;2072866;28;19917;-78
2023/08/29 00:12:35;;;;;;;;;;;;;;;;;;2069443;28;20317;-78
2023/08/29 00:13:56;;;;;;;;;;;;;;;;;;2062964;28;20281;-78
2023/08/29 00:15:16;;;;;;;;;;;;;;;;;;2070629;28;19917;-78
2023/08/29 00:16:37;;;;;;;;;;;;;;;;;;2064738;28;19917;-78
2023/08/29 00:17:58;;;;;;;;;;;;;;;;;;2068091;28;19921;-78
2023/08/29 00:19:21;;;;;;;;;;;;;;;;;;2068760;28;19925;-78
2023/08/29 00:20:42;;;;;;;;;;;;;;;;;;2070486;28;19917;-78
2023/08/29 00:22:02;;;;;;;;;;;;;;;;;;2068824;28;20424;-78
2023/08/29 00:23:23;;;;;;;;;;;;;;;;;;2071180;28;19913;-78
2023/08/29 00:24:44;;;;;;;;;;;;;;;;;;2060603;28;19914;-77
2023/08/29 00:26:04;;;;;;;;;;;;;;;;;;2060057;28;19917;-77
2023/08/29 00:27:25;;;;;;;;;;;;;;;;;;2063232;28;19952;-77
2023/08/29 00:28:46;;;;;;;;;;;;;;;;;;2061049;28;20265;-78
2023/08/29 00:30:07;;;;;;;;;;;;;;;;;;2060566;28;19922;-78
2023/08/29 00:31:28;;;;;;;;;;;;;;;;;;2063940;28;19921;-78
2023/08/29 00:32:49;;;;;;;;;;;;;;;;;;2064463;28;19913;-78
2023/08/29 00:34:09;;;;;;;;;;;;;;;;;;2068531;28;19918;-78
2023/08/29 00:35:30;;;;;;;;;;;;;;;;;;2069258;28;19940;-78
2023/08/29 00:36:51;;;;;;;;;;;;;;;;;;2067721;28;19914;-78
2023/08/29 00:38:12;;;;;;;;;;;;;;;;;;2068351;28;20270;-77
2023/08/29 00:39:33;;;;;;;;;;;;;;;;;;2070824;28;19944;-78
2023/08/29 00:40:53;;;;;;;;;;;;;;;;;;2067251;28;19976;-78
2023/08/29 00:42:14;;;;;;;;;;;;;;;;;;2068538;28;20321;-78
2023/08/29 00:43:35;;;;;;;;;;;;;;;;;;2073127;28;19975;-78
2023/08/29 00:44:56;;;;;;;;;;;;;;;;;;2067898;28;20341;-78
2023/08/29 00:46:16;;;;;;;;;;;;;;;;;;2065252;28;20467;-78
2023/08/29 00:47:37;;;;;;;;;;;;;;;;;;2065736;28;19926;-78
2023/08/29 00:48:58;;;;;;;;;;;;;;;;;;2064489;28;19929;-78
2023/08/29 00:50:19;;;;;;;;;;;;;;;;;;2071218;28;20340;-78
2023/08/29 00:51:40;;;;;;;;;;;;;;;;;;2071924;28;20344;-78
2023/08/29 00:53:00;;;;;;;;;;;;;;;;;;2075150;28;19970;-79
2023/08/29 00:54:21;;;;;;;;;;;;;;;;;;2070330;28;20289;-78
2023/08/29 00:55:42;;;;;;;;;;;;;;;;;;2068365;28;19918;-78
2023/08/29 00:57:03;;;;;;;;;;;;;;;;;;2063102;28;19948;-78
2023/08/29 00:58:23;;;;;;;;;;;;;;;;;;2064917;28;19925;-78
2023/08/29 00:59:44;;;;;;;;;;;;;;;;;;2060824;28;20404;-78
2023/08/29 01:01:05;;;;;;;;;;;;;;;;;;2069946;28;19913;-78
2023/08/29 01:02:25;;;;;;;;;;;;;;;;;;2071350;28;20392;-78
2023/08/29 01:03:46;;;;;;;;;;;;;;;;;;2071725;28;19918;-77
2023/08/29 01:05:07;;;;;;;;;;;;;;;;;;2061432;28;20519;-78
2023/08/29 01:06:27;;;;;;;;;;;;;;;;;;2067032;28;19914;-78
2023/08/29 01:07:48;;;;;;;;;;;;;;;;;;2075519;28;20369;-78
2023/08/29 01:09:09;;;;;;;;;;;;;;;;;;2074086;28;19921;-78
2023/08/29 01:10:29;;;;;;;;;;;;;;;;;;2074326;28;20288;-78
2023/08/29 01:11:50;;;;;;;;;;;;;;;;;;2064821;28;19914;-78
2023/08/29 01:13:11;;;;;;;;;;;;;;;;;;2074624;28;20000;-78
2023/08/29 01:14:32;;;;;;;;;;;;;;;;;;2074186;28;20131;-78
2023/08/29 01:15:52;;;;;;;;;;;;;;;;;;2071830;28;19913;-79
2023/08/29 01:17:13;;;;;;;;;;;;;;;;;;2067679;28;20845;-79
2023/08/29 01:18:34;;;;;;;;;;;;;;;;;;2063116;28;19937;-78
2023/08/29 01:19:54;;;;;;;;;;;;;;;;;;2060930;28;19926;-78
2023/08/29 01:21:15;;;;;;;;;;;;;;;;;;2072799;28;19920;-77
2023/08/29 01:22:36;;;;;;;;;;;;;;;;;;2075148;28;19924;-78
2023/08/29 01:23:56;;;;;;;;;;;;;;;;;;2074388;28;19921;-78
2023/08/29 01:25:17;;;;;;;;;;;;;;;;;;2073638;28;20270;-78
2023/08/29 01:26:38;;;;;;;;;;;;;;;;;;2064925;28;19914;-78
2023/08/29 01:27:58;;;;;;;;;;;;;;;;;;2072267;28;19917;-78
2023/08/29 01:29:19;;;;;;;;;;;;;;;;;;2069939;28;19926;-78
2023/08/29 01:30:40;;;;;;;;;;;;;;;;;;2067680;28;19960;-78
2023/08/29 01:32:01;;;;;;;;;;;;;;;;;;2070311;28;19985;-78
2023/08/29 01:33:22;;;;;;;;;;;;;;;;;;2072169;28;19914;-78
2023/08/29 01:34:44;;;;;;;;;;;;;;;;;;2073989;28;19925;-78
2023/08/29 01:36:04;;;;;;;;;;;;;;;;;;2073198;28;19922;-79
2023/08/29 01:37:25;;;;;;;;;;;;;;;;;;2075139;28;20361;-78
2023/08/29 01:38:46;;;;;;;;;;;;;;;;;;2073502;28;19932;-78
2023/08/29 01:40:06;;;;;;;;;;;;;;;;;;2071487;28;20458;-78
2023/08/29 01:41:28;;;;;;;;;;;;;;;;;;2073047;28;19967;-78
2023/08/29 01:42:49;;;;;;;;;;;;;;;;;;2066213;28;19920;-78
2023/08/29 01:44:10;;;;;;;;;;;;;;;;;;2069752;28;19917;-78
2023/08/29 01:45:30;;;;;;;;;;;;;;;;;;2066809;28;19988;-78
2023/08/29 01:46:51;;;;;;;;;;;;;;;;;;2060435;28;19921;-78
2023/08/29 01:48:12;;;;;;;;;;;;;;;;;;2056943;28;20358;-78
2023/08/29 01:49:32;;;;;;;;;;;;;;;;;;2060928;28;20049;-78
2023/08/29 01:50:53;;;;;;;;;;;;;;;;;;2068962;28;19984;-77
2023/08/29 01:52:14;;;;;;;;;;;;;;;;;;2073163;28;19913;-78
2023/08/29 01:53:38;;;;;;;;;;;;;;;;;;2061666;28;20285;-78
2023/08/29 01:54:59;;;;;;;;;;;;;;;;;;2071432;28;19914;-78
2023/08/29 01:56:20;;;;;;;;;;;;;;;;;;2073028;28;19993;-78
2023/08/29 01:57:40;;;;;;;;;;;;;;;;;;2064478;28;19937;-78
2023/08/29 01:59:01;;;;;;;;;;;;;;;;;;2062502;28;19914;-78
2023/08/29 02:00:22;;;;;;;;;;;;;;;;;;2072189;28;20348;-78
2023/08/29 02:01:43;;;;;;;;;;;;;;;;;;2064747;28;19914;-78
2023/08/29 02:03:03;;;;;;;;;;;;;;;;;;2067763;28;19922;-78
2023/08/29 02:04:24;;;;;;;;;;;;;;;;;;2073660;28;20349;-78
2023/08/29 02:05:45;;;;;;;;;;;;;;;;;;2067943;28;19917;-78
2023/08/29 02:07:05;;;;;;;;;;;;;;;;;;2069480;28;19925;-78
2023/08/29 02:08:26;;;;;;;;;;;;;;;;;;2064635;28;19914;-78
2023/08/29 02:09:47;;;;;;;;;;;;;;;;;;2062661;28;20365;-78
2023/08/29 02:11:07;;;;;;;;;;;;;;;;;;2072761;28;19964;-78
2023/08/29 02:12:28;;;;;;;;;;;;;;;;;;2074894;28;19913;-78
2023/08/29 02:13:49;;;;;;;;;;;;;;;;;;2068029;28;19921;-78
2023/08/29 02:15:10;;;;;;;;;;;;;;;;;;2071657;28;20012;-79
2023/08/29 02:16:31;;;;;;;;;;;;;;;;;;2071054;28;19958;-78
2023/08/29 02:17:53;;;;;;;;;;;;;;;;;;2069176;28;19914;-78
2023/08/29 02:19:13;;;;;;;;;;;;;;;;;;2060644;28;19964;-78
2023/08/29 02:20:34;;;;;;;;;;;;;;;;;;2063956;28;19921;-78
2023/08/29 02:21:55;;;;;;;;;;;;;;;;;;2065630;28;19949;-79
2023/08/29 02:23:15;;;;;;;;;;;;;;;;;;2065619;28;19921;-78
2023/08/29 02:24:36;;;;;;;;;;;;;;;;;;2066358;28;20322;-79
2023/08/29 02:25:57;;;;;;;;;;;;;;;;;;2073896;28;19924;-78
2023/08/29 02:27:18;;;;;;;;;;;;;;;;;;2071735;28;19917;-79
2023/08/29 02:28:38;;;;;;;;;;;;;;;;;;2069229;28;19921;-79
2023/08/29 02:29:59;;;;;;;;;;;;;;;;;;2064617;28;19918;-78
2023/08/29 02:31:23;;;;;;;;;;;;;;;;;;2069372;28;19913;-78
2023/08/29 02:32:44;;;;;;;;;;;;;;;;;;2072670;28;19920;-79
2023/08/29 02:34:05;;;;;;;;;;;;;;;;;;2070901;28;19921;-78
2023/08/29 02:35:25;;;;;;;;;;;;;;;;;;2066228;28;19921;-79
2023/08/29 02:36:46;;;;;;;;;;;;;;;;;;2063897;28;19997;-78
2023/08/29 02:38:07;;;;;;;;;;;;;;;;;;2061504;28;19918;-78
2023/08/29 02:39:28;;;;;;;;;;;;;;;;;;2056368;28;19917;-78
2023/08/29 02:40:49;;;;;;;;;;;;;;;;;;2067449;28;20219;-78
2023/08/29 02:42:10;;;;;;;;;;;;;;;;;;2061400;28;19921;-78
2023/08/29 02:43:31;;;;;;;;;;;;;;;;;;2071654;28;19913;-79
2023/08/29 02:44:51;;;;;;;;;;;;;;;;;;2069220;28;20463;-79
2023/08/29 02:46:12;;;;;;;;;;;;;;;;;;2071792;28;19933;-78
2023/08/29 02:47:33;;;;;;;;;;;;;;;;;;2064258;28;19925;-78
2023/08/29 02:48:53;;;;;;;;;;;;;;;;;;2070872;28;20561;-78
2023/08/29 02:50:14;;;;;;;;;;;;;;;;;;2062428;28;19929;-78
2023/08/29 02:51:35;;;;;;;;;;;;;;;;;;2070471;28;20321;-78
2023/08/29 02:52:55;;;;;;;;;;;;;;;;;;2064446;28;19945;-79
2023/08/29 02:54:18;;;;;;;;;;;;;;;;;;2063791;28;20726;-80
2023/08/29 02:55:40;;;;;;;;;;;;;;;;;;2064446;28;19929;-79
2023/08/29 02:57:01;;;;;;;;;;;;;;;;;;2060777;28;20048;-79
2023/08/29 02:58:22;;;;;;;;;;;;;;;;;;2070541;28;19913;-79
2023/08/29 02:59:42;;;;;;;;;;;;;;;;;;2060717;28;20000;-79
2023/08/29 03:01:06;;;;;;;;;;;;;;;;;;2071016;28;19917;-79
2023/08/29 03:02:26;;;;;;;;;;;;;;;;;;2064150;28;19913;-78
2023/08/29 03:03:48;;;;;;;;;;;;;;;;;;2065770;28;19922;-78
2023/08/29 03:05:08;;;;;;;;;;;;;;;;;;2067351;28;20107;-79
2023/08/29 03:06:29;;;;;;;;;;;;;;;;;;2069742;28;19922;-79
2023/08/29 03:07:50;;;;;;;;;;;;;;;;;;2074522;28;20361;-79
2023/08/29 03:09:10;;;;;;;;;;;;;;;;;;2063869;28;19988;-79
2023/08/29 03:10:31;;;;;;;;;;;;;;;;;;2065130;28;19973;-78
2023/08/29 03:11:52;;;;;;;;;;;;;;;;;;2064613;28;19933;-79
2023/08/29 03:13:13;;;;;;;;;;;;;;;;;;2068489;28;19913;-79
2023/08/29 03:14:33;;;;;;;;;;;;;;;;;;2062072;28;19922;-78
2023/08/29 03:15:54;;;;;;;;;;;;;;;;;;2062127;28;19914;-79
2023/08/29 03:17:15;;;;;;;;;;;;;;;;;;2068420;28;19914;-79
2023/08/29 03:18:35;;;;;;;;;;;;;;;;;;2072133;28;19913;-79
2023/08/29 03:19:56;;;;;;;;;;;;;;;;;;2063359;28;21066;-78
2023/08/29 03:21:17;;;;;;;;;;;;;;;;;;2065569;28;20344;-78
2023/08/29 03:22:37;;;;;;;;;;;;;;;;;;2066972;28;19917;-78
2023/08/29 03:23:58;;;;;;;;;;;;;;;;;;2070605;28;19975;-78
2023/08/29 03:25:19;;;;;;;;;;;;;;;;;;2064384;28;19924;-79
2023/08/29 03:26:40;;;;;;;;;;;;;;;;;;2062771;28;19913;-78
2023/08/29 03:28:01;;;;;;;;;;;;;;;;;;2069542;28;19966;-78
2023/08/29 03:29:22;;;;;;;;;;;;;;;;;;2062862;28;19918;-78
2023/08/29 03:30:43;;;;;;;;;;;;;;;;;;2070309;28;19921;-77
2023/08/29 03:32:03;;;;;;;;;;;;;;;;;;2071030;28;19913;-78
2023/08/29 03:33:24;;;;;;;;;;;;;;;;;;2070275;28;19921;-77
2023/08/29 03:34:45;;;;;;;;;;;;;;;;;;2073559;28;19913;-77
2023/08/29 03:36:06;;;;;;;;;;;;;;;;;;2071575;28;20369;-78
2023/08/29 03:37:27;;;;;;;;;;;;;;;;;;2069267;28;19924;-78
2023/08/29 03:38:48;;;;;;;;;;;;;;;;;;2062628;28;19961;-77
2023/08/29 03:40:09;;;;;;;;;;;;;;;;;;2063538;28;19918;-77
2023/08/29 03:41:30;;;;;;;;;;;;;;;;;;2067568;28;19913;-77
2023/08/29 03:42:51;;;;;;;;;;;;;;;;;;2065324;28;19914;-78
2023/08/29 03:44:12;;;;;;;;;;;;;;;;;;2071108;28;19917;-78
2023/08/29 03:45:32;;;;;;;;;;;;;;;;;;2063951;28;19926;-78
2023/08/29 03:46:53;;;;;;;;;;;;;;;;;;2062540;28;19918;-77
2023/08/29 03:48:14;;;;;;;;;;;;;;;;;;2066372;28;19940;-78
2023/08/29 03:49:35;;;;;;;;;;;;;;;;;;2072243;28;19913;-78
2023/08/29 03:50:56;;;;;;;;;;;;;;;;;;2062307;28;19929;-77
2023/08/29 03:52:16;;;;;;;;;;;;;;;;;;2067406;28;20011;-78
2023/08/29 03:53:37;;;;;;;;;;;;;;;;;;2063976;28;19914;-78
2023/08/29 03:54:58;;;;;;;;;;;;;;;;;;2065709;28;19917;-78
2023/08/29 03:56:18;;;;;;;;;;;;;;;;;;2063049;28;19918;-78
2023/08/29 03:57:39;;;;;;;;;;;;;;;;;;2067737;28;19921;-78
2023/08/29 03:59:01;;;;;;;;;;;;;;;;;;2070794;28;19922;-78
2023/08/29 04:00:22;;;;;;;;;;;;;;;;;;2062654;28;19981;-78
2023/08/29 04:01:43;;;;;;;;;;;;;;;;;;2061691;28;19914;-79
2023/08/29 04:03:07;;;;;;;;;;;;;;;;;;2067192;28;19961;-78
2023/08/29 04:04:28;;;;;;;;;;;;;;;;;;2073882;28;19921;-78
2023/08/29 04:05:49;;;;;;;;;;;;;;;;;;2069164;28;20376;-78
2023/08/29 04:07:09;;;;;;;;;;;;;;;;;;2074573;28;19930;-79
2023/08/29 04:08:30;;;;;;;;;;;;;;;;;;2068943;28;19914;-79
2023/08/29 04:09:51;;;;;;;;;;;;;;;;;;2072011;28;19913;-78
2023/08/29 04:11:12;;;;;;;;;;;;;;;;;;2068246;28;19922;-78
2023/08/29 04:12:32;;;;;;;;;;;;;;;;;;2063339;28;19914;-78
2023/08/29 04:13:53;;;;;;;;;;;;;;;;;;2067832;28;19913;-78
2023/08/29 04:15:14;;;;;;;;;;;;;;;;;;2062663;28;19921;-79
2023/08/29 04:16:34;;;;;;;;;;;;;;;;;;2069886;28;20365;-78
2023/08/29 04:17:55;;;;;;;;;;;;;;;;;;2073104;28;19913;-78
2023/08/29 04:19:16;;;;;;;;;;;;;;;;;;2071647;28;19943;-78
2023/08/29 04:20:37;;;;;;;;;;;;;;;;;;2062351;28;20159;-78
2023/08/29 04:21:58;;;;;;;;;;;;;;;;;;2068367;28;19917;-78
2023/08/29 04:23:19;;;;;;;;;;;;;;;;;;2062500;28;19922;-78
2023/08/29 04:24:40;;;;;;;;;;;;;;;;;;2070411;28;19913;-78
2023/08/29 04:26:01;;;;;;;;;;;;;;;;;;2062838;28;19989;-78
2023/08/29 04:27:21;;;;;;;;;;;;;;;;;;2062576;28;20296;-78
2023/08/29 04:28:42;;;;;;;;;;;;;;;;;;2070969;28;20025;-78
2023/08/29 04:30:03;;;;;;;;;;;;;;;;;;2070176;28;20387;-78
2023/08/29 04:31:24;;;;;;;;;;;;;;;;;;2065263;28;19976;-79
2023/08/29 04:32:46;;;;;;;;;;;;;;;;;;2061415;28;19921;-79
2023/08/29 04:34:07;;;;;;;;;;;;;;;;;;2060100;28;19914;-78
2023/08/29 04:35:27;;;;;;;;;;;;;;;;;;2068519;28;20213;-78
2023/08/29 04:36:48;;;;;;;;;;;;;;;;;;2063157;28;20304;-78
2023/08/29 04:38:09;;;;;;;;;;;;;;;;;;2069345;28;19917;-78
2023/08/29 04:39:30;;;;;;;;;;;;;;;;;;2070715;28;19928;-78
2023/08/29 04:40:50;;;;;;;;;;;;;;;;;;2062549;28;20254;-78
2023/08/29 04:42:11;;;;;;;;;;;;;;;;;;2061304;28;19914;-78
2023/08/29 04:43:32;;;;;;;;;;;;;;;;;;2066808;28;19922;-78
2023/08/29 04:44:53;;;;;;;;;;;;;;;;;;2069213;28;19914;-78
2023/08/29 04:46:14;;;;;;;;;;;;;;;;;;2064860;28;19913;-78
2023/08/29 04:47:35;;;;;;;;;;;;;;;;;;2069912;28;20415;-78
2023/08/29 04:48:56;;;;;;;;;;;;;;;;;;2070437;28;19921;-78
2023/08/29 04:50:17;;;;;;;;;;;;;;;;;;2068048;28;19921;-78
2023/08/29 04:51:37;;;;;;;;;;;;;;;;;;2068819;28;19933;-78
2023/08/29 04:52:58;;;;;;;;;;;;;;;;;;2067100;28;19921;-77
2023/08/29 04:54:19;;;;;;;;;;;;;;;;;;2067460;28;19922;-78
2023/08/29 04:55:40;;;;;;;;;;;;;;;;;;2065857;28;20384;-78
2023/08/29 04:57:00;;;;;;;;;;;;;;;;;;2064356;28;20293;-78
2023/08/29 04:58:21;;;;;;;;;;;;;;;;;;2062891;28;19918;-77
2023/08/29 04:59:42;;;;;;;;;;;;;;;;;;2064216;28;19988;-78
2023/08/29 05:01:03;;;;;;;;;;;;;;;;;;2068399;28;19929;-77
2023/08/29 05:02:24;;;;;;;;;;;;;;;;;;2069029;28;20357;-78
2023/08/29 05:03:45;;;;;;;;;;;;;;;;;;2068301;28;19921;-78
2023/08/29 05:05:06;;;;;;;;;;;;;;;;;;2069196;28;20557;-78
2023/08/29 05:06:26;;;;;;;;;;;;;;;;;;2071034;28;19968;-78
2023/08/29 05:07:47;;;;;;;;;;;;;;;;;;2071681;28;20353;-78
2023/08/29 05:09:09;;;;;;;;;;;;;;;;;;2060214;28;20334;-78
2023/08/29 05:10:30;;;;;;;;;;;;;;;;;;2058202;28;19954;-78
2023/08/29 05:11:50;;;;;;;;;;;;;;;;;;2065579;28;20443;-78
2023/08/29 05:13:11;;;;;;;;;;;;;;;;;;2068072;28;19921;-78
2023/08/29 05:14:32;;;;;;;;;;;;;;;;;;2069005;28;20921;-78
2023/08/29 05:15:53;;;;;;;;;;;;;;;;;;2063844;28;19914;-77
2023/08/29 05:17:13;;;;;;;;;;;;;;;;;;2066788;28;19921;-78
2023/08/29 05:18:34;;;;;;;;;;;;;;;;;;2062546;28;19933;-78
2023/08/29 05:19:55;;;;;;;;;;;;;;;;;;2065723;28;19925;-78
2023/08/29 05:21:15;;;;;;;;;;;;;;;;;;2063984;28;19925;-78
2023/08/29 05:22:37;;;;;;;;;;;;;;;;;;2059622;28;19917;-78
2023/08/29 05:23:57;;;;;;;;;;;;;;;;;;2064641;28;19913;-77
2023/08/29 05:25:18;;;;;;;;;;;;;;;;;;2060015;28;19918;-78
2023/08/29 05:26:39;;;;;;;;;;;;;;;;;;2066117;28;20438;-78
2023/08/29 05:27:59;;;;;;;;;;;;;;;;;;2068311;28;19918;-78
2023/08/29 05:29:21;;;;;;;;;;;;;;;;;;2071585;28;19913;-78
2023/08/29 05:30:42;;;;;;;;;;;;;;;;;;2070888;28;19917;-77
2023/08/29 05:32:04;;;;;;;;;;;;;;;;;;2069745;28;19914;-79
2023/08/29 05:33:24;;;;;;;;;;;;;;;;;;2064970;28;20439;-77
2023/08/29 05:34:45;;;;;;;;;;;;;;;;;;2063603;28;19914;-77
2023/08/29 05:36:09;;;;;;;;;;;;;;;;;;2069659;28;19925;-78
2023/08/29 05:37:30;;;;;;;;;;;;;;;;;;2063314;28;19937;-77
2023/08/29 05:38:50;;;;;;;;;;;;;;;;;;2059478;28;19926;-78
2023/08/29 05:40:11;;;;;;;;;;;;;;;;;;2070147;28;20328;-79
2023/08/29 05:41:32;;;;;;;;;;;;;;;;;;2066221;28;19953;-79
2023/08/29 05:42:52;;;;;;;;;;;;;;;;;;2071205;28;20318;-84
2023/08/29 05:44:13;;;;;;;;;;;;;;;;;;2065621;28;21275;-84
2023/08/29 05:45:34;;;;;;;;;;;;;;;;;;2057199;28;20364;-85
2023/08/29 05:46:55;;;;;;;;;;;;;;;;;;2067778;28;19917;-85
2023/08/29 05:48:15;;;;;;;;;;;;;;;;;;2057765;28;20285;-84
2023/08/29 05:49:36;;;;;;;;;;;;;;;;;;2057680;28;20285;-80
2023/08/29 05:50:57;;;;;;;;;;;;;;;;;;2064636;28;19925;-83
2023/08/29 05:52:17;;;;;;;;;;;;;;;;;;2072024;28;20059;-83
2023/08/29 05:53:38;;;;;;;;;;;;;;;;;;2073531;28;19917;-83
2023/08/29 05:54:59;;;;;;;;;;;;;;;;;;2065212;28;19914;-83
2023/08/29 05:56:20;;;;;;;;;;;;;;;;;;2068939;28;19913;-84
2023/08/29 05:57:40;;;;;;;;;;;;;;;;;;2064103;28;20369;-83
2023/08/29 05:59:02;;;;;;;;;;;;;;;;;;2066553;28;19914;-82
2023/08/29 06:00:23;;;;;;;;;;;;;;;;;;2064398;28;20024;-81
2023/08/29 06:01:43;;;;;;;;;;;;;;;;;;2070111;28;19918;-82
2023/08/29 06:03:04;;;;;;;;;;;;;;;;;;2075573;28;19968;-82
2023/08/29 06:04:25;;;;;;;;;;;;;;;;;;2074527;28;19917;-83
2023/08/29 06:05:45;;;;;;;;;;;;;;;;;;2068086;28;19993;-83
2023/08/29 06:07:07;;;;;;;;;;;;;;;;;;2068844;28;19914;-77
2023/08/29 06:08:28;;;;;;;;;;;;;;;;;;2073672;28;19921;-78
2023/08/29 06:09:49;;;;;;;;;;;;;;;;;;2062007;28;19933;-81
2023/08/29 06:11:09;;;;;;;;;;;;;;;;;;2072490;28;19921;-81
2023/08/29 06:12:30;;;;;;;;;;;;;;;;;;2067521;28;19936;-78
2023/08/29 06:13:51;;;;;;;;;;;;;;;;;;2072387;28;20079;-81
2023/08/29 06:15:11;;;;;;;;;;;;;;;;;;2067313;28;19913;-82
2023/08/29 06:16:32;;;;;;;;;;;;;;;;;;2064136;28;19913;-83
2023/08/29 06:17:53;;;;;;;;;;;;;;;;;;2074883;28;19924;-82
2023/08/29 06:19:14;;;;;;;;;;;;;;;;;;2073119;28;19913;-80
2023/08/29 06:20:34;;;;;;;;;;;;;;;;;;2063165;28;19914;-83
2023/08/29 06:21:55;;;;;;;;;;;;;;;;;;2069774;28;20261;-82
2023/08/29 06:23:16;;;;;;;;;;;;;;;;;;2064089;28;19914;-82
2023/08/29 06:24:36;;;;;;;;;;;;;;;;;;2062408;28;19928;-82
2023/08/29 06:25:57;;;;;;;;;;;;;;;;;;2068165;28;19917;-83
2023/08/29 06:27:18;;;;;;;;;;;;;;;;;;2063429;28;19915;-82
2023/08/29 06:28:39;;;;;;;;;;;;;;;;;;2066857;28;19932;-82
2023/08/29 06:29:59;;;;;;;;;;;;;;;;;;2071131;28;20169;-83
2023/08/29 06:31:20;;;;;;;;;;;;;;;;;;2066655;28;19922;-83
2023/08/29 06:32:41;;;;;;;;;;;;;;;;;;2066447;28;20334;-83
2023/08/29 06:34:02;;;;;;;;;;;;;;;;;;2063803;28;19914;-81
2023/08/29 06:35:22;;;;;;;;;;;;;;;;;;2066813;28;19999;-83
2023/08/29 06:36:43;;;;;;;;;;;;;;;;;;2061313;28;19972;-85
2023/08/29 06:38:04;;;;;;;;;;;;;;;;;;2056388;28;19913;-82
2023/08/29 06:39:25;;;;;;;;;;;;;;;;;;2063293;28;19917;-80
2023/08/29 06:40:45;;;;;;;;;;;;;;;;;;2057153;28;19918;-80
2023/08/29 06:42:06;;;;;;;;;;;;;;;;;;2062392;28;19921;-81
2023/08/29 06:43:27;;;;;;;;;;;;;;;;;;2071586;28;19922;-81
2023/08/29 06:44:48;;;;;;;;;;;;;;;;;;2059202;28;19914;-80
2023/08/29 06:46:09;;;;;;;;;;;;;;;;;;2062367;28;19942;-81
2023/08/29 06:47:29;;;;;;;;;;;;;;;;;;2053783;28;19914;-80
2023/08/29 06:48:50;;;;;;;;;;;;;;;;;;2059818;28;19917;-81
2023/08/29 06:50:12;;;;;;;;;;;;;;;;;;2063906;28;19914;-81
2023/08/29 06:51:32;;;;;;;;;;;;;;;;;;2063191;28;19922;-81
2023/08/29 06:52:53;;;;;;;;;;;;;;;;;;2049452;28;20464;-77
2023/08/29 06:54:14;;;;;;;;;;;;;;;;;;2063307;28;20037;-79
2023/08/29 06:55:34;;;;;;;;;;;;;;;;;;2059899;28;19933;-79
2023/08/29 06:56:55;;;;;;;;;;;;;;;;;;2051363;28;19923;-79
2023/08/29 06:58:16;;;;;;;;;;;;;;;;;;2046828;29;19922;-80
2023/08/29 06:59:37;;;;;;;;;;;;;;;;;;2043929;29;20339;-79
2023/08/29 07:00:57;;;;;;;;;;;;;;;;;;2054601;28;19937;-79
2023/08/29 07:02:18;;;;;;;;;;;;;;;;;;2063659;28;19925;-79
2023/08/29 07:03:39;;;;;;;;;;;;;;;;;;2063391;28;19922;-79
2023/08/29 07:04:59;;;;;;;;;;;;;;;;;;2059272;28;19937;-79
2023/08/29 07:06:20;;;;;;;;;;;;;;;;;;2059517;28;19922;-79
2023/08/29 07:07:41;;;;;;;;;;;;;;;;;;2061443;28;20411;-79
2023/08/29 07:09:02;;;;;;;;;;;;;;;;;;2058359;28;19913;-79
2023/08/29 07:10:22;;;;;;;;;;;;;;;;;;2057955;28;19922;-79
2023/08/29 07:11:43;;;;;;;;;;;;;;;;;;2055112;28;19925;-79
2023/08/29 07:13:04;;;;;;;;;;;;;;;;;;2064253;28;20419;-79
2023/08/29 07:14:24;;;;;;;;;;;;;;;;;;2054214;28;19910;-80
2023/08/29 07:15:45;;;;;;;;;;;;;;;;;;2063571;28;19910;-79
2023/08/29 07:17:06;;;;;;;;;;;;;;;;;;2066228;28;19910;-79
2023/08/29 07:18:26;;;;;;;;;;;;;;;;;;2065866;28;20293;-80
2023/08/29 07:19:47;;;;;;;;;;;;;;;;;;2049749;29;19922;-79
2023/08/29 07:21:09;;;;;;;;;;;;;;;;;;2059713;28;20337;-78
2023/08/29 07:22:30;;;;;;;;;;;;;;;;;;2063183;28;19921;-79
2023/08/29 07:23:51;;;;;;;;;;;;;;;;;;2061648;28;19925;-79
2023/08/29 07:25:11;;;;;;;;;;;;;;;;;;2060306;28;19914;-78
2023/08/29 07:26:32;;;;;;;;;;;;;;;;;;2061643;28;20095;-78
2023/08/29 07:27:53;;;;;;;;;;;;;;;;;;2055771;28;19918;-78
2023/08/29 07:29:13;;;;;;;;;;;;;;;;;;2061510;28;19914;-79
2023/08/29 07:30:34;;;;;;;;;;;;;;;;;;2063231;28;19925;-78
2023/08/29 07:31:55;;;;;;;;;;;;;;;;;;2064636;28;19926;-78
2023/08/29 07:33:16;;;;;;;;;;;;;;;;;;2063698;28;20024;-78
2023/08/29 07:34:39;;;;;;;;;;;;;;;;;;2055312;28;19923;-78
2023/08/29 07:36:00;;;;;;;;;;;;;;;;;;2070973;28;19929;-79
2023/08/29 07:37:20;;;;;;;;;;;;;;;;;;2076227;28;19987;-79
2023/08/29 07:38:41;;;;;;;;;;;;;;;;;;2073085;28;20327;-79
2023/08/29 07:40:03;;;;;;;;;;;;;;;;;;2069871;28;19933;-79
2023/08/29 07:41:24;;;;;;;;;;;;;;;;;;2070386;28;19995;-79
2023/08/29 07:42:44;;;;;;;;;;;;;;;;;;2073423;28;19913;-80
2023/08/29 07:44:05;;;;;;;;;;;;;;;;;;2056447;28;20309;-77
2023/08/29 07:45:26;;;;;;;;;;;;;;;;;;2065260;28;19917;-77
2023/08/29 07:46:46;;;;;;;;;;;;;;;;;;2070819;28;19910;-78
2023/08/29 07:48:07;;;;;;;;;;;;;;;;;;2064311;28;20404;-77
2023/08/29 07:49:28;;;;;;;;;;;;;;;;;;2064035;28;19910;-78
2023/08/29 07:50:48;;;;;;;;;;;;;;;;;;2073188;28;19951;-77
2023/08/29 07:52:09;;;;;;;;;;;;;;;;;;2073403;28;20320;-78
2023/08/29 07:53:30;;;;;;;;;;;;;;;;;;2081415;28;20379;-78
2023/08/29 07:54:50;;;;;;;;;;;;;;;;;;2066262;28;20383;-77
2023/08/29 07:56:11;;;;;;;;;;;;;;;;;;2073134;28;19909;-77
2023/08/29 07:57:32;;;;;;;;;;;;;;;;;;2065792;28;20309;-77
2023/08/29 07:58:53;;;;;;;;;;;;;;;;;;2063964;28;19914;-78
2023/08/29 08:00:14;;;;;;;;;;;;;;;;;;2063658;28;20289;-77
2023/08/29 08:01:35;;;;;;;;;;;;;;;;;;2072279;28;19918;-77
2023/08/29 08:02:56;;;;;;;;;;;;;;;;;;2073081;28;19910;-77
2023/08/29 08:04:16;;;;;;;;;;;;;;;;;;2064811;28;19913;-78
2023/08/29 08:05:37;;;;;;;;;;;;;;;;;;2075360;28;19917;-78
2023/08/29 08:06:58;;;;;;;;;;;;;;;;;;2064231;28;19910;-78
2023/08/29 08:08:18;;;;;;;;;;;;;;;;;;2061633;28;19925;-78
2023/08/29 08:09:40;;;;;;;;;;;;;;;;;;2058661;28;19918;-78
2023/08/29 08:11:01;;;;;;;;;;;;;;;;;;2070689;28;19909;-78
2023/08/29 08:12:22;;;;;;;;;;;;;;;;;;2070772;28;20316;-78
2023/08/29 08:13:42;;;;;;;;;;;;;;;;;;2080000;28;19951;-78
2023/08/29 08:15:04;;;;;;;;;;;;;;;;;;2067945;28;19914;-78
2023/08/29 08:16:27;;;;;;;;;;;;;;;;;;2070984;28;20297;-79
2023/08/29 08:17:48;;;;;;;;;;;;;;;;;;2076530;28;19909;-78
2023/08/29 08:19:08;;;;;;;;;;;;;;;;;;2075274;28;19976;-78
2023/08/29 08:20:29;;;;;;;;;;;;;;;;;;2072162;28;19917;-78
2023/08/29 08:21:50;;;;;;;;;;;;;;;;;;2069165;28;20284;-77
2023/08/29 08:23:12;;;;;;;;;;;;;;;;;;2067054;28;19913;-78
2023/08/29 08:24:32;;;;;;;;;;;;;;;;;;2066281;28;19910;-77
2023/08/29 08:25:53;;;;;;;;;;;;;;;;;;2072797;28;20306;-78
2023/08/29 08:27:14;;;;;;;;;;;;;;;;;;2064171;28;19941;-78
2023/08/29 08:28:34;;;;;;;;;;;;;;;;;;2071139;28;19913;-78
2023/08/29 08:29:55;;;;;;;;;;;;;;;;;;2070825;28;19929;-78
2023/08/29 08:31:16;;;;;;;;;;;;;;;;;;2072728;28;20377;-77
2023/08/29 08:32:37;;;;;;;;;;;;;;;;;;2071448;28;19909;-78
2023/08/29 08:33:57;;;;;;;;;;;;;;;;;;2072550;28;19921;-76
2023/08/29 08:35:18;;;;;;;;;;;;;;;;;;2077467;28;20023;-77
2023/08/29 08:36:39;;;;;;;;;;;;;;;;;;2069811;28;19913;-77
2023/08/29 08:37:59;;;;;;;;;;;;;;;;;;2069529;28;19913;-77
2023/08/29 08:39:21;;;;;;;;;;;;;;;;;;2073680;28;19993;-77
2023/08/29 08:40:42;;;;;;;;;;;;;;;;;;2066992;28;19952;-77
2023/08/29 08:42:02;;;;;;;;;;;;;;;;;;2064824;28;19973;-77
2023/08/29 08:43:23;;;;;;;;;;;;;;;;;;2063602;28;20365;-77
2023/08/29 08:44:44;;;;;;;;;;;;;;;;;;2077129;28;19917;-77
2023/08/29 08:46:04;;;;;;;;;;;;;;;;;;2067758;28;19910;-77
2023/08/29 08:47:25;;;;;;;;;;;;;;;;;;2067763;28;19909;-77
2023/08/29 08:48:46;;;;;;;;;;;;;;;;;;2064969;28;20425;-77
2023/08/29 08:50:08;;;;;;;;;;;;;;;;;;2065678;28;19910;-76
2023/08/29 08:51:30;;;;;;;;;;;;;;;;;;2070689;28;19991;-75
2023/08/29 08:52:50;;;;;;;;;;;;;;;;;;2078836;28;19959;-77
2023/08/29 08:54:11;;;;;;;;;;;;;;;;;;2078445;28;20290;-77
2023/08/29 08:55:32;;;;;;;;;;;;;;;;;;2072470;28;20297;-76
2023/08/29 08:56:57;;;;;;;;;;;;;;;;;;2062161;28;19966;-76
2023/08/29 08:58:18;;;;;;;;;;;;;;;;;;2066864;28;19916;-77
2023/08/29 08:59:39;;;;;;;;;;;;;;;;;;2064981;28;19917;-77
2023/08/29 09:00:59;;;;;;;;;;;;;;;;;;2071304;28;19959;-76
2023/08/29 09:02:20;;;;;;;;;;;;;;;;;;2070860;28;19948;-77
2023/08/29 09:03:41;;;;;;;;;;;;;;;;;;2080785;28;19909;-77
2023/08/29 09:05:02;;;;;;;;;;;;;;;;;;2074336;28;20392;-77
2023/08/29 09:06:22;;;;;;;;;;;;;;;;;;2073917;28;19913;-76
2023/08/29 09:07:43;;;;;;;;;;;;;;;;;;2077044;28;19909;-76
2023/08/29 09:09:04;;;;;;;;;;;;;;;;;;2080539;28;20293;-76
2023/08/29 09:10:25;;;;;;;;;;;;;;;;;;2072880;28;19910;-76
2023/08/29 09:11:45;;;;;;;;;;;;;;;;;;2072701;28;19921;-77